sensor_id;sensor_type;location;lat;lon;timestamp;pressure;altitude;pressure_sealevel;temperature;humidity
2711;BME280;20721;47.402;8.550;2023-03-15T00:01:18;95711;;;6.89;62.47
2711;BME280;20721;47.402;8.550;2023-03-15T00:02:16;95709;;;6.90;62.46
2711;BME280;20721;47.402;8.550;2023-03-15T00:03:16;95712;;;6.91;62.36
2711;BME280;20721;47.402;8.550;2023-03-15T00:04:16;95713;;;6.93;62.68
2711;BME280;20721;47.402;8.550;2023-03-15T00:05:16;95720;;;6.92;62.46
2711;BME280;20721;47.402;8.550;2023-03-15T00:06:16;95723;;;6.83;62.62
2711;BME280;20721;47.402;8.550;2023-03-15T00:08:16;95729;;;6.87;62.80
2711;BME280;20721;47.402;8.550;2023-03-15T00:09:16;95731;;;6.94;62.83
2711;BME280;20721;47.402;8.550;2023-03-15T00:10:16;95732;;;6.98;62.55
2711;BME280;20721;47.402;8.550;2023-03-15T00:11:16;95739;;;6.80;61.82
2711;BME280;20721;47.402;8.550;2023-03-15T00:12:16;95740;;;6.78;62.19
2711;BME280;20721;47.402;8.550;2023-03-15T00:13:17;95744;;;6.75;62.42
2711;BME280;20721;47.402;8.550;2023-03-15T00:14:16;95746;;;6.76;62.91
2711;BME280;20721;47.402;8.550;2023-03-15T00:15:16;95744;;;6.74;62.51
2711;BME280;20721;47.402;8.550;2023-03-15T00:16:17;95746;;;6.72;62.04
2711;BME280;20721;47.402;8.550;2023-03-15T00:17:16;95754;;;6.69;61.95
2711;BME280;20721;47.402;8.550;2023-03-15T00:18:16;95757;;;6.64;61.91
2711;BME280;20721;47.402;8.550;2023-03-15T00:20:18;95751;;;6.65;61.65
2711;BME280;20721;47.402;8.550;2023-03-15T00:21:16;95755;;;6.68;61.88
2711;BME280;20721;47.402;8.550;2023-03-15T00:22:16;95754;;;6.70;61.34
2711;BME280;20721;47.402;8.550;2023-03-15T00:24:16;95749;;;6.78;61.59
2711;BME280;20721;47.402;8.550;2023-03-15T00:25:16;95752;;;6.83;61.49
2711;BME280;20721;47.402;8.550;2023-03-15T00:26:16;95756;;;6.74;61.17
2711;BME280;20721;47.402;8.550;2023-03-15T00:27:16;95757;;;6.75;61.27
2711;BME280;20721;47.402;8.550;2023-03-15T00:28:16;95745;;;6.72;61.17
2711;BME280;20721;47.402;8.550;2023-03-15T00:29:16;95763;;;6.67;61.33
2711;BME280;20721;47.402;8.550;2023-03-15T00:30:16;95757;;;6.54;61.83
2711;BME280;20721;47.402;8.550;2023-03-15T00:31:17;95760;;;6.51;61.99
2711;BME280;20721;47.402;8.550;2023-03-15T00:32:16;95761;;;6.53;61.82
2711;BME280;20721;47.402;8.550;2023-03-15T00:34:17;95761;;;6.55;62.09
2711;BME280;20721;47.402;8.550;2023-03-15T00:35:17;95763;;;6.59;61.93
2711;BME280;20721;47.402;8.550;2023-03-15T00:36:16;95770;;;6.55;61.64
2711;BME280;20721;47.402;8.550;2023-03-15T00:37:16;95767;;;6.58;61.72
2711;BME280;20721;47.402;8.550;2023-03-15T00:38:16;95771;;;6.64;61.55
2711;BME280;20721;47.402;8.550;2023-03-15T00:39:16;95773;;;6.71;61.46
2711;BME280;20721;47.402;8.550;2023-03-15T00:40:16;95770;;;6.78;61.35
2711;BME280;20721;47.402;8.550;2023-03-15T00:41:16;95773;;;6.72;61.10
2711;BME280;20721;47.402;8.550;2023-03-15T00:43:16;95781;;;6.75;61.26
2711;BME280;20721;47.402;8.550;2023-03-15T00:44:16;95785;;;6.68;61.01
2711;BME280;20721;47.402;8.550;2023-03-15T00:45:17;95787;;;6.50;61.63
2711;BME280;20721;47.402;8.550;2023-03-15T00:46:16;95792;;;6.38;61.97
2711;BME280;20721;47.402;8.550;2023-03-15T00:47:16;95791;;;6.31;62.16
2711;BME280;20721;47.402;8.550;2023-03-15T00:48:16;95790;;;6.30;62.67
2711;BME280;20721;47.402;8.550;2023-03-15T00:49:16;95787;;;6.38;62.33
2711;BME280;20721;47.402;8.550;2023-03-15T00:50:16;95795;;;6.49;62.23
2711;BME280;20721;47.402;8.550;2023-03-15T00:51:17;95797;;;6.55;61.82
2711;BME280;20721;47.402;8.550;2023-03-15T00:52:16;95799;;;6.61;61.62
2711;BME280;20721;47.402;8.550;2023-03-15T00:53:16;95795;;;6.59;61.54
2711;BME280;20721;47.402;8.550;2023-03-15T00:54:16;95801;;;6.61;61.47
2711;BME280;20721;47.402;8.550;2023-03-15T00:55:17;95803;;;6.55;61.47
2711;BME280;20721;47.402;8.550;2023-03-15T00:56:17;95807;;;6.49;61.45
2711;BME280;20721;47.402;8.550;2023-03-15T00:57:16;95807;;;6.38;61.67
2711;BME280;20721;47.402;8.550;2023-03-15T00:58:16;95816;;;6.35;61.98
2711;BME280;20721;47.402;8.550;2023-03-15T00:59:16;95816;;;6.38;61.93
2711;BME280;20721;47.402;8.550;2023-03-15T01:00:17;95821;;;6.46;62.09
2711;BME280;20721;47.402;8.550;2023-03-15T01:01:17;95819;;;6.52;61.97
2711;BME280;20721;47.402;8.550;2023-03-15T01:02:16;95819;;;6.58;61.70
2711;BME280;20721;47.402;8.550;2023-03-15T01:03:16;95825;;;6.59;61.62
2711;BME280;20721;47.402;8.550;2023-03-15T01:04:16;95829;;;6.63;61.29
2711;BME280;20721;47.402;8.550;2023-03-15T01:05:16;95839;;;6.65;60.94
2711;BME280;20721;47.402;8.550;2023-03-15T01:07:16;95846;;;6.64;60.76
2711;BME280;20721;47.402;8.550;2023-03-15T01:08:16;95847;;;6.62;60.59
2711;BME280;20721;47.402;8.550;2023-03-15T01:09:16;95850;;;6.61;60.45
2711;BME280;20721;47.402;8.550;2023-03-15T01:10:16;95852;;;6.60;60.36
2711;BME280;20721;47.402;8.550;2023-03-15T01:11:17;95849;;;6.61;60.64
2711;BME280;20721;47.402;8.550;2023-03-15T01:13:16;95852;;;6.63;60.88
2711;BME280;20721;47.402;8.550;2023-03-15T01:14:17;95855;;;6.59;60.17
2711;BME280;20721;47.402;8.550;2023-03-15T01:15:16;95856;;;6.63;60.30
2711;BME280;20721;47.402;8.550;2023-03-15T01:16:17;95858;;;6.64;60.45
2711;BME280;20721;47.402;8.550;2023-03-15T01:17:16;95859;;;6.63;60.54
2711;BME280;20721;47.402;8.550;2023-03-15T01:18:16;95863;;;6.68;60.72
2711;BME280;20721;47.402;8.550;2023-03-15T01:19:16;95861;;;6.67;60.33
2711;BME280;20721;47.402;8.550;2023-03-15T01:20:16;95863;;;6.62;59.84
2711;BME280;20721;47.402;8.550;2023-03-15T01:21:16;95862;;;6.57;59.82
2711;BME280;20721;47.402;8.550;2023-03-15T01:22:16;95865;;;6.58;59.85
2711;BME280;20721;47.402;8.550;2023-03-15T01:23:16;95861;;;6.62;60.00
2711;BME280;20721;47.402;8.550;2023-03-15T01:24:16;95861;;;6.66;60.19
2711;BME280;20721;47.402;8.550;2023-03-15T01:25:16;95868;;;6.69;59.99
2711;BME280;20721;47.402;8.550;2023-03-15T01:26:16;95869;;;6.73;59.47
2711;BME280;20721;47.402;8.550;2023-03-15T01:27:16;95869;;;6.67;59.05
2711;BME280;20721;47.402;8.550;2023-03-15T01:28:16;95870;;;6.57;59.51
2711;BME280;20721;47.402;8.550;2023-03-15T01:29:16;95873;;;6.59;59.75
2711;BME280;20721;47.402;8.550;2023-03-15T01:30:16;95874;;;6.61;59.25
2711;BME280;20721;47.402;8.550;2023-03-15T01:31:17;95881;;;6.63;59.06
2711;BME280;20721;47.402;8.550;2023-03-15T01:32:16;95879;;;6.65;58.58
2711;BME280;20721;47.402;8.550;2023-03-15T01:33:16;95884;;;6.68;58.56
2711;BME280;20721;47.402;8.550;2023-03-15T01:34:16;95884;;;6.69;58.60
2711;BME280;20721;47.402;8.550;2023-03-15T01:35:16;95886;;;6.70;58.13
2711;BME280;20721;47.402;8.550;2023-03-15T01:36:16;95882;;;6.71;58.46
2711;BME280;20721;47.402;8.550;2023-03-15T01:37:16;95887;;;6.69;58.03
2711;BME280;20721;47.402;8.550;2023-03-15T01:38:16;95886;;;6.68;58.00
2711;BME280;20721;47.402;8.550;2023-03-15T01:40:16;95895;;;6.71;57.48
2711;BME280;20721;47.402;8.550;2023-03-15T01:41:17;95897;;;6.76;57.54
2711;BME280;20721;47.402;8.550;2023-03-15T01:42:16;95897;;;6.80;57.42
2711;BME280;20721;47.402;8.550;2023-03-15T01:43:17;95902;;;6.85;57.36
2711;BME280;20721;47.402;8.550;2023-03-15T01:44:17;95901;;;6.87;57.27
2711;BME280;20721;47.402;8.550;2023-03-15T01:46:19;95899;;;6.93;57.01
2711;BME280;20721;47.402;8.550;2023-03-15T01:47:16;95903;;;6.95;56.39
2711;BME280;20721;47.402;8.550;2023-03-15T01:48:16;95906;;;6.97;56.60
2711;BME280;20721;47.402;8.550;2023-03-15T01:49:17;95912;;;6.98;56.62
2711;BME280;20721;47.402;8.550;2023-03-15T01:50:16;95912;;;6.94;56.64
2711;BME280;20721;47.402;8.550;2023-03-15T01:52:17;95912;;;6.93;56.70
2711;BME280;20721;47.402;8.550;2023-03-15T01:53:16;95914;;;6.87;56.33
2711;BME280;20721;47.402;8.550;2023-03-15T01:55:16;95916;;;6.88;56.52
2711;BME280;20721;47.402;8.550;2023-03-15T01:58:16;95918;;;6.85;56.27
2711;BME280;20721;47.402;8.550;2023-03-15T02:00:17;95919;;;6.87;56.84
2711;BME280;20721;47.402;8.550;2023-03-15T02:01:16;95921;;;6.89;56.66
2711;BME280;20721;47.402;8.550;2023-03-15T02:02:16;95918;;;6.93;56.76
2711;BME280;20721;47.402;8.550;2023-03-15T02:03:17;95918;;;6.95;56.84
2711;BME280;20721;47.402;8.550;2023-03-15T02:04:17;95921;;;6.98;56.79
2711;BME280;20721;47.402;8.550;2023-03-15T02:05:18;95924;;;6.95;56.47
2711;BME280;20721;47.402;8.550;2023-03-15T02:06:17;95927;;;6.94;56.26
2711;BME280;20721;47.402;8.550;2023-03-15T02:07:16;95933;;;6.93;56.21
2711;BME280;20721;47.402;8.550;2023-03-15T02:09:16;95930;;;6.90;55.96
2711;BME280;20721;47.402;8.550;2023-03-15T02:11:16;95934;;;6.89;56.45
2711;BME280;20721;47.402;8.550;2023-03-15T02:12:16;95935;;;6.92;56.75
2711;BME280;20721;47.402;8.550;2023-03-15T02:13:17;95936;;;6.95;56.15
2711;BME280;20721;47.402;8.550;2023-03-15T02:14:16;95939;;;6.98;56.39
2711;BME280;20721;47.402;8.550;2023-03-15T02:15:16;95937;;;6.99;56.18
2711;BME280;20721;47.402;8.550;2023-03-15T02:18:16;95935;;;6.98;55.85
2711;BME280;20721;47.402;8.550;2023-03-15T02:19:22;95936;;;6.97;55.42
2711;BME280;20721;47.402;8.550;2023-03-15T02:20:33;95939;;;6.93;55.46
2711;BME280;20721;47.402;8.550;2023-03-15T02:23:17;95943;;;6.92;56.07
2711;BME280;20721;47.402;8.550;2023-03-15T02:24:24;95943;;;6.94;55.89
2711;BME280;20721;47.402;8.550;2023-03-15T02:25:20;95939;;;6.96;55.99
2711;BME280;20721;47.402;8.550;2023-03-15T02:26:19;95937;;;6.97;55.66
2711;BME280;20721;47.402;8.550;2023-03-15T02:27:32;95939;;;6.99;55.91
2711;BME280;20721;47.402;8.550;2023-03-15T02:28:16;95943;;;7.00;55.70
2711;BME280;20721;47.402;8.550;2023-03-15T02:29:16;95940;;;7.02;55.78
2711;BME280;20721;47.402;8.550;2023-03-15T02:31:16;95941;;;7.01;55.75
2711;BME280;20721;47.402;8.550;2023-03-15T02:32:16;95946;;;7.00;55.69
2711;BME280;20721;47.402;8.550;2023-03-15T02:33:18;95946;;;6.99;55.95
2711;BME280;20721;47.402;8.550;2023-03-15T02:35:32;95950;;;6.96;55.34
2711;BME280;20721;47.402;8.550;2023-03-15T02:37:16;95955;;;6.92;55.22
2711;BME280;20721;47.402;8.550;2023-03-15T02:39:18;95952;;;6.91;55.58
2711;BME280;20721;47.402;8.550;2023-03-15T02:40:17;95954;;;6.89;55.23
2711;BME280;20721;47.402;8.550;2023-03-15T02:41:18;95956;;;6.88;55.30
2711;BME280;20721;47.402;8.550;2023-03-15T02:42:16;95958;;;6.87;55.23
2711;BME280;20721;47.402;8.550;2023-03-15T02:43:17;95966;;;6.85;55.23
2711;BME280;20721;47.402;8.550;2023-03-15T02:44:18;95966;;;6.83;55.31
2711;BME280;20721;47.402;8.550;2023-03-15T02:48:16;95976;;;6.80;54.14
2711;BME280;20721;47.402;8.550;2023-03-15T02:49:16;95979;;;6.75;54.43
2711;BME280;20721;47.402;8.550;2023-03-15T02:50:16;95976;;;6.70;55.09
2711;BME280;20721;47.402;8.550;2023-03-15T02:51:18;95978;;;6.66;54.67
2711;BME280;20721;47.402;8.550;2023-03-15T02:52:17;95978;;;6.64;54.71
2711;BME280;20721;47.402;8.550;2023-03-15T02:53:16;95980;;;6.62;54.44
2711;BME280;20721;47.402;8.550;2023-03-15T02:54:16;95976;;;6.60;54.23
2711;BME280;20721;47.402;8.550;2023-03-15T02:55:18;95982;;;6.57;54.04
2711;BME280;20721;47.402;8.550;2023-03-15T02:56:16;95984;;;6.52;54.42
2711;BME280;20721;47.402;8.550;2023-03-15T02:57:17;95983;;;6.49;53.91
2711;BME280;20721;47.402;8.550;2023-03-15T02:58:16;95983;;;6.48;54.33
2711;BME280;20721;47.402;8.550;2023-03-15T03:01:17;95988;;;6.49;53.88
2711;BME280;20721;47.402;8.550;2023-03-15T03:03:16;95986;;;6.46;54.04
2711;BME280;20721;47.402;8.550;2023-03-15T03:04:16;95987;;;6.44;53.66
2711;BME280;20721;47.402;8.550;2023-03-15T03:05:16;95990;;;6.40;53.68
2711;BME280;20721;47.402;8.550;2023-03-15T03:06:17;95990;;;6.39;53.54
2711;BME280;20721;47.402;8.550;2023-03-15T03:09:16;95995;;;6.37;54.06
2711;BME280;20721;47.402;8.550;2023-03-15T03:10:17;95996;;;6.36;53.76
2711;BME280;20721;47.402;8.550;2023-03-15T03:11:16;95998;;;6.33;53.02
2711;BME280;20721;47.402;8.550;2023-03-15T03:12:17;95997;;;6.32;53.36
2711;BME280;20721;47.402;8.550;2023-03-15T03:13:16;96001;;;6.29;53.35
2711;BME280;20721;47.402;8.550;2023-03-15T03:14:16;96000;;;6.28;53.61
2711;BME280;20721;47.402;8.550;2023-03-15T03:18:16;96004;;;6.26;54.07
2711;BME280;20721;47.402;8.550;2023-03-15T03:19:16;96010;;;6.24;53.98
2711;BME280;20721;47.402;8.550;2023-03-15T03:20:16;96011;;;6.22;54.52
2711;BME280;20721;47.402;8.550;2023-03-15T03:22:16;96011;;;6.21;54.43
2711;BME280;20721;47.402;8.550;2023-03-15T03:24:16;96017;;;6.19;53.97
2711;BME280;20721;47.402;8.550;2023-03-15T03:25:16;96018;;;6.18;54.18
2711;BME280;20721;47.402;8.550;2023-03-15T03:26:17;96019;;;6.17;54.13
2711;BME280;20721;47.402;8.550;2023-03-15T03:28:16;96021;;;6.15;54.22
2711;BME280;20721;47.402;8.550;2023-03-15T03:30:16;96029;;;6.13;54.86
2711;BME280;20721;47.402;8.550;2023-03-15T03:31:17;96027;;;6.12;54.67
2711;BME280;20721;47.402;8.550;2023-03-15T03:32:16;96032;;;6.10;54.25
2711;BME280;20721;47.402;8.550;2023-03-15T03:34:16;96037;;;6.09;54.20
2711;BME280;20721;47.402;8.550;2023-03-15T03:35:16;96034;;;6.08;54.29
2711;BME280;20721;47.402;8.550;2023-03-15T03:36:16;96036;;;6.06;53.95
2711;BME280;20721;47.402;8.550;2023-03-15T03:37:17;96038;;;6.02;53.85
2711;BME280;20721;47.402;8.550;2023-03-15T03:38:16;96038;;;5.98;54.30
2711;BME280;20721;47.402;8.550;2023-03-15T03:39:16;96040;;;5.83;54.01
2711;BME280;20721;47.402;8.550;2023-03-15T03:40:16;96041;;;5.77;54.50
2711;BME280;20721;47.402;8.550;2023-03-15T03:41:16;96045;;;5.72;55.33
2711;BME280;20721;47.402;8.550;2023-03-15T03:42:16;96047;;;5.69;55.08
2711;BME280;20721;47.402;8.550;2023-03-15T03:43:16;96047;;;5.66;54.61
2711;BME280;20721;47.402;8.550;2023-03-15T03:44:16;96051;;;5.63;54.88
2711;BME280;20721;47.402;8.550;2023-03-15T03:45:17;96055;;;5.53;54.66
2711;BME280;20721;47.402;8.550;2023-03-15T03:46:16;96059;;;5.48;54.72
2711;BME280;20721;47.402;8.550;2023-03-15T03:47:16;96059;;;5.45;54.84
2711;BME280;20721;47.402;8.550;2023-03-15T03:48:16;96057;;;5.47;54.63
2711;BME280;20721;47.402;8.550;2023-03-15T03:49:16;96057;;;5.49;55.08
2711;BME280;20721;47.402;8.550;2023-03-15T03:50:16;96060;;;5.51;55.05
2711;BME280;20721;47.402;8.550;2023-03-15T03:51:16;96062;;;5.52;55.20
2711;BME280;20721;47.402;8.550;2023-03-15T03:52:16;96063;;;5.51;55.38
2711;BME280;20721;47.402;8.550;2023-03-15T03:53:16;96064;;;5.43;55.22
2711;BME280;20721;47.402;8.550;2023-03-15T03:54:20;96064;;;5.39;55.15
2711;BME280;20721;47.402;8.550;2023-03-15T03:55:16;96064;;;5.32;55.41
2711;BME280;20721;47.402;8.550;2023-03-15T03:56:16;96066;;;5.30;55.57
2711;BME280;20721;47.402;8.550;2023-03-15T03:57:16;96067;;;5.21;55.43
2711;BME280;20721;47.402;8.550;2023-03-15T03:58:16;96070;;;5.19;55.67
2711;BME280;20721;47.402;8.550;2023-03-15T03:59:16;96069;;;5.11;56.03
2711;BME280;20721;47.402;8.550;2023-03-15T04:02:16;96071;;;5.14;56.54
2711;BME280;20721;47.402;8.550;2023-03-15T04:03:16;96072;;;5.18;56.70
2711;BME280;20721;47.402;8.550;2023-03-15T04:04:16;96069;;;5.20;56.82
2711;BME280;20721;47.402;8.550;2023-03-15T04:05:16;96071;;;5.26;56.73
2711;BME280;20721;47.402;8.550;2023-03-15T04:06:16;96072;;;5.33;56.62
2711;BME280;20721;47.402;8.550;2023-03-15T04:07:17;96076;;;5.36;56.81
2711;BME280;20721;47.402;8.550;2023-03-15T04:08:16;96072;;;5.39;56.76
2711;BME280;20721;47.402;8.550;2023-03-15T04:09:16;96075;;;5.43;56.87
2711;BME280;20721;47.402;8.550;2023-03-15T04:10:16;96074;;;5.44;56.85
2711;BME280;20721;47.402;8.550;2023-03-15T04:11:17;96078;;;5.47;56.77
2711;BME280;20721;47.402;8.550;2023-03-15T04:12:16;96080;;;5.50;56.54
2711;BME280;20721;47.402;8.550;2023-03-15T04:13:16;96076;;;5.51;56.63
2711;BME280;20721;47.402;8.550;2023-03-15T04:14:16;96081;;;5.53;56.51
2711;BME280;20721;47.402;8.550;2023-03-15T04:15:16;96079;;;5.55;56.40
2711;BME280;20721;47.402;8.550;2023-03-15T04:16:16;96081;;;5.56;56.58
2711;BME280;20721;47.402;8.550;2023-03-15T04:17:16;96084;;;5.57;56.81
2711;BME280;20721;47.402;8.550;2023-03-15T04:18:16;96085;;;5.58;56.79
2711;BME280;20721;47.402;8.550;2023-03-15T04:19:16;96081;;;5.57;56.90
2711;BME280;20721;47.402;8.550;2023-03-15T04:20:18;96082;;;5.59;56.68
2711;BME280;20721;47.402;8.550;2023-03-15T04:22:16;96081;;;5.63;56.41
2711;BME280;20721;47.402;8.550;2023-03-15T04:23:18;96082;;;5.58;56.02
2711;BME280;20721;47.402;8.550;2023-03-15T04:24:16;96083;;;5.50;56.02
2711;BME280;20721;47.402;8.550;2023-03-15T04:25:17;96083;;;5.22;56.42
2711;BME280;20721;47.402;8.550;2023-03-15T04:26:16;96086;;;4.92;56.97
2711;BME280;20721;47.402;8.550;2023-03-15T04:27:16;96085;;;4.61;57.90
2711;BME280;20721;47.402;8.550;2023-03-15T04:28:17;96087;;;4.49;58.51
2711;BME280;20721;47.402;8.550;2023-03-15T04:29:16;96091;;;4.48;58.65
2711;BME280;20721;47.402;8.550;2023-03-15T04:30:16;96092;;;4.44;58.88
2711;BME280;20721;47.402;8.550;2023-03-15T04:31:16;96092;;;4.45;58.85
2711;BME280;20721;47.402;8.550;2023-03-15T04:32:17;96093;;;4.43;59.16
2711;BME280;20721;47.402;8.550;2023-03-15T04:33:16;96096;;;4.48;59.20
2711;BME280;20721;47.402;8.550;2023-03-15T04:34:16;96097;;;4.57;59.06
2711;BME280;20721;47.402;8.550;2023-03-15T04:35:16;96099;;;4.61;58.86
2711;BME280;20721;47.402;8.550;2023-03-15T04:36:17;96099;;;4.60;58.97
2711;BME280;20721;47.402;8.550;2023-03-15T04:37:17;96101;;;4.66;58.89
2711;BME280;20721;47.402;8.550;2023-03-15T04:38:16;96105;;;4.71;58.66
2711;BME280;20721;47.402;8.550;2023-03-15T04:39:16;96110;;;4.79;58.58
2711;BME280;20721;47.402;8.550;2023-03-15T04:40:16;96114;;;4.86;58.88
2711;BME280;20721;47.402;8.550;2023-03-15T04:41:16;96115;;;4.94;58.61
2711;BME280;20721;47.402;8.550;2023-03-15T04:42:17;96115;;;5.00;58.61
2711;BME280;20721;47.402;8.550;2023-03-15T04:43:16;96112;;;5.05;58.47
2711;BME280;20721;47.402;8.550;2023-03-15T04:44:16;96116;;;5.10;58.26
2711;BME280;20721;47.402;8.550;2023-03-15T04:46:16;96113;;;5.14;58.34
2711;BME280;20721;47.402;8.550;2023-03-15T04:47:16;96116;;;5.17;58.26
2711;BME280;20721;47.402;8.550;2023-03-15T04:48:16;96119;;;5.18;58.41
2711;BME280;20721;47.402;8.550;2023-03-15T04:49:16;96119;;;5.21;58.38
2711;BME280;20721;47.402;8.550;2023-03-15T04:50:16;96121;;;5.24;58.56
2711;BME280;20721;47.402;8.550;2023-03-15T04:51:16;96122;;;5.23;58.24
2711;BME280;20721;47.402;8.550;2023-03-15T04:52:16;96125;;;5.22;58.46
2711;BME280;20721;47.402;8.550;2023-03-15T04:53:16;96125;;;5.20;58.50
2711;BME280;20721;47.402;8.550;2023-03-15T04:54:16;96128;;;5.19;58.56
2711;BME280;20721;47.402;8.550;2023-03-15T04:55:16;96126;;;5.18;58.57
2711;BME280;20721;47.402;8.550;2023-03-15T04:56:16;96126;;;5.15;58.49
2711;BME280;20721;47.402;8.550;2023-03-15T04:57:16;96127;;;5.16;58.65
2711;BME280;20721;47.402;8.550;2023-03-15T04:59:16;96129;;;5.17;58.53
2711;BME280;20721;47.402;8.550;2023-03-15T05:00:16;96128;;;5.19;58.46
2711;BME280;20721;47.402;8.550;2023-03-15T05:01:16;96127;;;5.21;58.52
2711;BME280;20721;47.402;8.550;2023-03-15T05:02:16;96129;;;5.23;58.57
2711;BME280;20721;47.402;8.550;2023-03-15T05:03:16;96133;;;5.26;58.64
2711;BME280;20721;47.402;8.550;2023-03-15T05:04:16;96136;;;5.28;58.41
2711;BME280;20721;47.402;8.550;2023-03-15T05:06:16;96135;;;5.30;58.22
2711;BME280;20721;47.402;8.550;2023-03-15T05:07:16;96137;;;5.29;58.32
2711;BME280;20721;47.402;8.550;2023-03-15T05:08:16;96137;;;5.30;58.34
2711;BME280;20721;47.402;8.550;2023-03-15T05:09:17;96137;;;5.33;58.38
2711;BME280;20721;47.402;8.550;2023-03-15T05:10:16;96135;;;5.35;58.29
2711;BME280;20721;47.402;8.550;2023-03-15T05:11:16;96137;;;5.36;58.39
2711;BME280;20721;47.402;8.550;2023-03-15T05:12:16;96137;;;5.39;58.08
2711;BME280;20721;47.402;8.550;2023-03-15T05:13:17;96139;;;5.42;57.91
2711;BME280;20721;47.402;8.550;2023-03-15T05:14:17;96138;;;5.44;57.67
2711;BME280;20721;47.402;8.550;2023-03-15T05:17:16;96136;;;5.45;57.60
2711;BME280;20721;47.402;8.550;2023-03-15T05:20:16;96142;;;5.48;57.86
2711;BME280;20721;47.402;8.550;2023-03-15T05:21:16;96142;;;5.49;57.77
2711;BME280;20721;47.402;8.550;2023-03-15T05:22:17;96139;;;5.41;57.69
2711;BME280;20721;47.402;8.550;2023-03-15T05:23:16;96140;;;5.34;57.58
2711;BME280;20721;47.402;8.550;2023-03-15T05:24:16;96139;;;5.32;57.68
2711;BME280;20721;47.402;8.550;2023-03-15T05:26:16;96140;;;5.31;57.89
2711;BME280;20721;47.402;8.550;2023-03-15T05:27:16;96146;;;5.22;57.80
2711;BME280;20721;47.402;8.550;2023-03-15T05:28:17;96145;;;5.03;58.00
2711;BME280;20721;47.402;8.550;2023-03-15T05:29:16;96146;;;4.94;58.55
2711;BME280;20721;47.402;8.550;2023-03-15T05:30:16;96144;;;4.84;58.73
2711;BME280;20721;47.402;8.550;2023-03-15T05:31:17;96148;;;4.78;59.21
2711;BME280;20721;47.402;8.550;2023-03-15T05:32:16;96149;;;4.81;59.09
2711;BME280;20721;47.402;8.550;2023-03-15T05:33:17;96147;;;4.84;59.01
2711;BME280;20721;47.402;8.550;2023-03-15T05:34:17;96154;;;4.85;59.06
2711;BME280;20721;47.402;8.550;2023-03-15T05:35:16;96153;;;4.91;59.11
2711;BME280;20721;47.402;8.550;2023-03-15T05:36:17;96156;;;4.95;59.04
2711;BME280;20721;47.402;8.550;2023-03-15T05:37:16;96158;;;5.01;58.86
2711;BME280;20721;47.402;8.550;2023-03-15T05:38:16;96159;;;5.05;58.55
2711;BME280;20721;47.402;8.550;2023-03-15T05:39:17;96163;;;5.12;58.27
2711;BME280;20721;47.402;8.550;2023-03-15T05:41:17;96165;;;5.07;58.08
2711;BME280;20721;47.402;8.550;2023-03-15T05:42:24;96163;;;5.04;58.38
2711;BME280;20721;47.402;8.550;2023-03-15T05:43:17;96165;;;5.05;58.61
2711;BME280;20721;47.402;8.550;2023-03-15T05:44:16;96173;;;5.08;58.74
2711;BME280;20721;47.402;8.550;2023-03-15T05:45:16;96175;;;5.10;58.53
2711;BME280;20721;47.402;8.550;2023-03-15T05:46:17;96174;;;5.12;58.54
2711;BME280;20721;47.402;8.550;2023-03-15T05:47:17;96175;;;5.15;58.55
2711;BME280;20721;47.402;8.550;2023-03-15T05:48:16;96177;;;5.20;58.65
2711;BME280;20721;47.402;8.550;2023-03-15T05:49:16;96182;;;5.23;58.49
2711;BME280;20721;47.402;8.550;2023-03-15T05:50:16;96183;;;5.27;58.41
2711;BME280;20721;47.402;8.550;2023-03-15T05:51:16;96183;;;5.31;58.28
2711;BME280;20721;47.402;8.550;2023-03-15T05:52:16;96184;;;5.33;58.08
2711;BME280;20721;47.402;8.550;2023-03-15T05:53:17;96184;;;5.36;58.17
2711;BME280;20721;47.402;8.550;2023-03-15T05:54:16;96185;;;5.38;58.26
2711;BME280;20721;47.402;8.550;2023-03-15T05:55:16;96186;;;5.41;57.79
2711;BME280;20721;47.402;8.550;2023-03-15T05:56:16;96186;;;5.40;57.52
2711;BME280;20721;47.402;8.550;2023-03-15T05:57:16;96190;;;5.41;57.15
2711;BME280;20721;47.402;8.550;2023-03-15T05:58:16;96190;;;5.42;56.90
2711;BME280;20721;47.402;8.550;2023-03-15T05:59:17;96190;;;5.31;56.89
2711;BME280;20721;47.402;8.550;2023-03-15T06:00:17;96188;;;5.21;57.22
2711;BME280;20721;47.402;8.550;2023-03-15T06:01:17;96189;;;5.17;57.69
2711;BME280;20721;47.402;8.550;2023-03-15T06:02:16;96189;;;5.18;58.03
2711;BME280;20721;47.402;8.550;2023-03-15T06:04:17;96191;;;5.21;57.90
2711;BME280;20721;47.402;8.550;2023-03-15T06:05:16;96190;;;5.24;57.96
2711;BME280;20721;47.402;8.550;2023-03-15T06:06:16;96192;;;5.29;58.19
2711;BME280;20721;47.402;8.550;2023-03-15T06:07:16;96190;;;5.33;57.98
2711;BME280;20721;47.402;8.550;2023-03-15T06:08:17;96190;;;5.36;57.62
2711;BME280;20721;47.402;8.550;2023-03-15T06:10:16;96194;;;5.38;56.97
2711;BME280;20721;47.402;8.550;2023-03-15T06:11:16;96197;;;5.36;56.89
2711;BME280;20721;47.402;8.550;2023-03-15T06:12:17;96198;;;5.32;57.02
2711;BME280;20721;47.402;8.550;2023-03-15T06:13:18;96198;;;5.30;57.14
2711;BME280;20721;47.402;8.550;2023-03-15T06:14:16;96195;;;5.31;57.35
2711;BME280;20721;47.402;8.550;2023-03-15T06:15:17;96196;;;5.34;57.71
2711;BME280;20721;47.402;8.550;2023-03-15T06:16:17;96196;;;5.38;57.67
2711;BME280;20721;47.402;8.550;2023-03-15T06:17:17;96196;;;5.43;57.81
2711;BME280;20721;47.402;8.550;2023-03-15T06:18:17;96193;;;5.47;57.39
2711;BME280;20721;47.402;8.550;2023-03-15T06:19:17;96195;;;5.48;56.43
2711;BME280;20721;47.402;8.550;2023-03-15T06:20:17;96195;;;5.39;54.77
2711;BME280;20721;47.402;8.550;2023-03-15T06:21:17;96195;;;5.40;55.59
2711;BME280;20721;47.402;8.550;2023-03-15T06:22:19;96194;;;5.44;55.90
2711;BME280;20721;47.402;8.550;2023-03-15T06:23:17;96194;;;5.49;55.83
2711;BME280;20721;47.402;8.550;2023-03-15T06:24:17;96193;;;5.54;56.00
2711;BME280;20721;47.402;8.550;2023-03-15T06:25:17;96197;;;5.59;56.00
2711;BME280;20721;47.402;8.550;2023-03-15T06:26:18;96193;;;5.65;55.70
2711;BME280;20721;47.402;8.550;2023-03-15T06:27:20;96195;;;5.72;56.00
2711;BME280;20721;47.402;8.550;2023-03-15T06:28:17;96194;;;5.80;56.06
2711;BME280;20721;47.402;8.550;2023-03-15T06:29:17;96195;;;5.82;55.34
2711;BME280;20721;47.402;8.550;2023-03-15T06:30:17;96195;;;5.88;55.27
2711;BME280;20721;47.402;8.550;2023-03-15T06:31:17;96198;;;5.89;55.07
2711;BME280;20721;47.402;8.550;2023-03-15T06:32:17;96200;;;5.99;54.67
2711;BME280;20721;47.402;8.550;2023-03-15T06:33:17;96200;;;6.17;54.19
2711;BME280;20721;47.402;8.550;2023-03-15T06:34:17;96201;;;6.35;54.01
2711;BME280;20721;47.402;8.550;2023-03-15T06:35:17;96203;;;6.51;53.87